sensor_id;sensor_type;location;lat;lon;timestamp;P1;durP1;ratioP1;P2;durP2;ratioP2
19339;SDS011;9804;52.350;6.684;2023-04-03T00:00:46;3.93;;;1.07;;
19339;SDS011;9804;52.350;6.684;2023-04-03T00:03:11;2.17;;;1.10;;
19339;SDS011;9804;52.350;6.684;2023-04-03T00:05:37;5.97;;;1.30;;
19339;SDS011;9804;52.350;6.684;2023-04-03T00:08:02;6.23;;;1.43;;
19339;SDS011;9804;52.350;6.684;2023-04-03T00:10:29;7.10;;;1.37;;
19339;SDS011;9804;52.350;6.684;2023-04-03T00:12:55;6.00;;;1.50;;
19339;SDS011;9804;52.350;6.684;2023-04-03T00:15:20;6.27;;;1.60;;
19339;SDS011;9804;52.350;6.684;2023-04-03T00:17:46;5.87;;;1.23;;
19339;SDS011;9804;52.350;6.684;2023-04-03T00:20:11;4.33;;;1.20;;
19339;SDS011;9804;52.350;6.684;2023-04-03T00:22:37;5.47;;;1.57;;
19339;SDS011;9804;52.350;6.684;2023-04-03T00:25:02;7.33;;;1.57;;
19339;SDS011;9804;52.350;6.684;2023-04-03T00:27:28;4.43;;;1.23;;
19339;SDS011;9804;52.350;6.684;2023-04-03T00:29:54;6.70;;;1.57;;
19339;SDS011;9804;52.350;6.684;2023-04-03T00:32:19;4.27;;;1.30;;
19339;SDS011;9804;52.350;6.684;2023-04-03T00:34:44;5.07;;;1.13;;
19339;SDS011;9804;52.350;6.684;2023-04-03T00:37:10;5.70;;;1.40;;
19339;SDS011;9804;52.350;6.684;2023-04-03T00:39:35;6.53;;;1.60;;
19339;SDS011;9804;52.350;6.684;2023-04-03T00:42:01;3.50;;;1.33;;
19339;SDS011;9804;52.350;6.684;2023-04-03T00:46:57;4.03;;;1.40;;
19339;SDS011;9804;52.350;6.684;2023-04-03T00:49:23;5.10;;;1.73;;
19339;SDS011;9804;52.350;6.684;2023-04-03T00:51:48;6.83;;;1.50;;
19339;SDS011;9804;52.350;6.684;2023-04-03T00:54:14;5.93;;;1.83;;
19339;SDS011;9804;52.350;6.684;2023-04-03T00:56:40;3.53;;;1.30;;
19339;SDS011;9804;52.350;6.684;2023-04-03T00:59:08;7.37;;;1.83;;
19339;SDS011;9804;52.350;6.684;2023-04-03T01:01:37;3.67;;;1.47;;
19339;SDS011;9804;52.350;6.684;2023-04-03T01:04:04;5.37;;;1.30;;
19339;SDS011;9804;52.350;6.684;2023-04-03T01:06:32;8.30;;;1.80;;
19339;SDS011;9804;52.350;6.684;2023-04-03T01:09:00;7.20;;;1.43;;
19339;SDS011;9804;52.350;6.684;2023-04-03T01:11:26;6.20;;;1.53;;
19339;SDS011;9804;52.350;6.684;2023-04-03T01:13:51;4.20;;;1.10;;
19339;SDS011;9804;52.350;6.684;2023-04-03T01:16:17;3.63;;;1.27;;
19339;SDS011;9804;52.350;6.684;2023-04-03T01:18:43;8.57;;;1.57;;
19339;SDS011;9804;52.350;6.684;2023-04-03T01:24:04;4.83;;;1.50;;
19339;SDS011;9804;52.350;6.684;2023-04-03T01:26:35;3.37;;;1.10;;
19339;SDS011;9804;52.350;6.684;2023-04-03T01:29:01;7.53;;;1.80;;
19339;SDS011;9804;52.350;6.684;2023-04-03T01:31:28;3.10;;;1.40;;
19339;SDS011;9804;52.350;6.684;2023-04-03T01:34:14;4.03;;;1.60;;
19339;SDS011;9804;52.350;6.684;2023-04-03T01:36:40;8.37;;;1.77;;
19339;SDS011;9804;52.350;6.684;2023-04-03T01:39:06;9.87;;;1.90;;
19339;SDS011;9804;52.350;6.684;2023-04-03T01:41:32;4.13;;;1.50;;
19339;SDS011;9804;52.350;6.684;2023-04-03T01:43:57;5.20;;;1.77;;
19339;SDS011;9804;52.350;6.684;2023-04-03T01:46:23;8.13;;;1.50;;
19339;SDS011;9804;52.350;6.684;2023-04-03T01:48:48;5.20;;;2.17;;
19339;SDS011;9804;52.350;6.684;2023-04-03T01:51:14;7.73;;;1.73;;
19339;SDS011;9804;52.350;6.684;2023-04-03T01:53:40;4.23;;;1.37;;
19339;SDS011;9804;52.350;6.684;2023-04-03T01:56:05;4.93;;;1.37;;
19339;SDS011;9804;52.350;6.684;2023-04-03T01:58:31;4.20;;;1.50;;
19339;SDS011;9804;52.350;6.684;2023-04-03T02:00:56;6.00;;;1.60;;
19339;SDS011;9804;52.350;6.684;2023-04-03T02:03:22;5.23;;;1.83;;
19339;SDS011;9804;52.350;6.684;2023-04-03T02:05:47;4.27;;;1.23;;
19339;SDS011;9804;52.350;6.684;2023-04-03T02:08:13;7.53;;;1.83;;
19339;SDS011;9804;52.350;6.684;2023-04-03T02:10:38;6.40;;;1.47;;
19339;SDS011;9804;52.350;6.684;2023-04-03T02:13:04;5.67;;;1.37;;
19339;SDS011;9804;52.350;6.684;2023-04-03T02:15:30;7.93;;;1.50;;
19339;SDS011;9804;52.350;6.684;2023-04-03T02:17:55;6.10;;;1.40;;
19339;SDS011;9804;52.350;6.684;2023-04-03T02:20:21;7.97;;;1.60;;
19339;SDS011;9804;52.350;6.684;2023-04-03T02:22:46;7.03;;;1.87;;
19339;SDS011;9804;52.350;6.684;2023-04-03T02:25:11;7.93;;;2.20;;
19339;SDS011;9804;52.350;6.684;2023-04-03T02:27:37;10.80;;;1.93;;
19339;SDS011;9804;52.350;6.684;2023-04-03T02:30:03;4.60;;;1.60;;
19339;SDS011;9804;52.350;6.684;2023-04-03T02:32:30;7.70;;;1.70;;
19339;SDS011;9804;52.350;6.684;2023-04-03T02:34:55;5.43;;;1.60;;
19339;SDS011;9804;52.350;6.684;2023-04-03T02:37:21;7.20;;;1.80;;
19339;SDS011;9804;52.350;6.684;2023-04-03T02:39:46;4.43;;;1.60;;
19339;SDS011;9804;52.350;6.684;2023-04-03T02:42:12;6.87;;;1.63;;
19339;SDS011;9804;52.350;6.684;2023-04-03T02:44:37;8.60;;;1.97;;
19339;SDS011;9804;52.350;6.684;2023-04-03T02:47:03;5.43;;;1.70;;
19339;SDS011;9804;52.350;6.684;2023-04-03T02:49:29;7.17;;;1.77;;
19339;SDS011;9804;52.350;6.684;2023-04-03T02:51:54;5.90;;;1.97;;
19339;SDS011;9804;52.350;6.684;2023-04-03T02:54:20;7.10;;;1.93;;
19339;SDS011;9804;52.350;6.684;2023-04-03T02:56:47;7.90;;;1.50;;
19339;SDS011;9804;52.350;6.684;2023-04-03T02:59:12;7.57;;;2.80;;
19339;SDS011;9804;52.350;6.684;2023-04-03T03:01:37;3.53;;;1.43;;
19339;SDS011;9804;52.350;6.684;2023-04-03T03:04:03;4.47;;;1.90;;
19339;SDS011;9804;52.350;6.684;2023-04-03T03:06:28;10.20;;;2.00;;
19339;SDS011;9804;52.350;6.684;2023-04-03T03:08:54;6.53;;;1.60;;
19339;SDS011;9804;52.350;6.684;2023-04-03T03:11:19;6.00;;;2.00;;
19339;SDS011;9804;52.350;6.684;2023-04-03T03:13:45;5.50;;;2.03;;
19339;SDS011;9804;52.350;6.684;2023-04-03T03:16:11;7.37;;;1.87;;
19339;SDS011;9804;52.350;6.684;2023-04-03T03:18:36;8.07;;;1.90;;
19339;SDS011;9804;52.350;6.684;2023-04-03T03:21:02;10.87;;;1.97;;
19339;SDS011;9804;52.350;6.684;2023-04-03T03:23:29;4.57;;;1.53;;
19339;SDS011;9804;52.350;6.684;2023-04-03T03:26:01;7.70;;;1.90;;
19339;SDS011;9804;52.350;6.684;2023-04-03T03:28:31;8.37;;;1.83;;
19339;SDS011;9804;52.350;6.684;2023-04-03T03:30:57;8.07;;;2.00;;
19339;SDS011;9804;52.350;6.684;2023-04-03T03:33:23;5.43;;;1.93;;
19339;SDS011;9804;52.350;6.684;2023-04-03T03:35:49;6.63;;;2.00;;
19339;SDS011;9804;52.350;6.684;2023-04-03T03:38:14;3.43;;;1.50;;
19339;SDS011;9804;52.350;6.684;2023-04-03T03:40:40;3.63;;;1.70;;
19339;SDS011;9804;52.350;6.684;2023-04-03T03:43:05;4.80;;;1.47;;
19339;SDS011;9804;52.350;6.684;2023-04-03T03:45:31;4.37;;;1.47;;
19339;SDS011;9804;52.350;6.684;2023-04-03T03:47:56;4.13;;;1.70;;
19339;SDS011;9804;52.350;6.684;2023-04-03T03:50:22;7.60;;;1.90;;
19339;SDS011;9804;52.350;6.684;2023-04-03T03:52:47;3.27;;;1.47;;
19339;SDS011;9804;52.350;6.684;2023-04-03T03:55:12;4.63;;;1.60;;
19339;SDS011;9804;52.350;6.684;2023-04-03T03:57:38;7.60;;;2.10;;
19339;SDS011;9804;52.350;6.684;2023-04-03T04:00:03;7.30;;;2.30;;
19339;SDS011;9804;52.350;6.684;2023-04-03T04:02:29;4.13;;;1.43;;
19339;SDS011;9804;52.350;6.684;2023-04-03T04:04:55;4.00;;;1.20;;
19339;SDS011;9804;52.350;6.684;2023-04-03T04:07:20;7.93;;;1.57;;
19339;SDS011;9804;52.350;6.684;2023-04-03T04:09:46;10.80;;;1.93;;
19339;SDS011;9804;52.350;6.684;2023-04-03T04:12:11;6.17;;;1.70;;
19339;SDS011;9804;52.350;6.684;2023-04-03T04:14:37;5.03;;;1.70;;
19339;SDS011;9804;52.350;6.684;2023-04-03T04:17:02;7.67;;;2.03;;
19339;SDS011;9804;52.350;6.684;2023-04-03T04:19:28;3.57;;;1.63;;
19339;SDS011;9804;52.350;6.684;2023-04-03T04:21:53;6.47;;;1.93;;
19339;SDS011;9804;52.350;6.684;2023-04-03T04:24:19;5.30;;;1.70;;
19339;SDS011;9804;52.350;6.684;2023-04-03T04:26:44;7.47;;;1.87;;
19339;SDS011;9804;52.350;6.684;2023-04-03T04:29:10;6.90;;;1.80;;
19339;SDS011;9804;52.350;6.684;2023-04-03T04:31:35;2.77;;;1.40;;
19339;SDS011;9804;52.350;6.684;2023-04-03T04:34:01;5.70;;;1.43;;
19339;SDS011;9804;52.350;6.684;2023-04-03T04:36:26;4.77;;;1.83;;
19339;SDS011;9804;52.350;6.684;2023-04-03T04:38:52;5.67;;;1.70;;
19339;SDS011;9804;52.350;6.684;2023-04-03T04:41:20;4.37;;;1.73;;
19339;SDS011;9804;52.350;6.684;2023-04-03T04:43:47;6.17;;;1.80;;
19339;SDS011;9804;52.350;6.684;2023-04-03T04:46:13;3.33;;;1.40;;
19339;SDS011;9804;52.350;6.684;2023-04-03T04:48:39;5.67;;;1.80;;
19339;SDS011;9804;52.350;6.684;2023-04-03T04:51:05;4.80;;;1.87;;
19339;SDS011;9804;52.350;6.684;2023-04-03T04:53:31;7.00;;;1.97;;
19339;SDS011;9804;52.350;6.684;2023-04-03T04:55:56;8.50;;;1.60;;
19339;SDS011;9804;52.350;6.684;2023-04-03T04:58:22;7.77;;;1.50;;
19339;SDS011;9804;52.350;6.684;2023-04-03T05:00:48;6.93;;;1.53;;
19339;SDS011;9804;52.350;6.684;2023-04-03T05:03:13;12.53;;;2.10;;
19339;SDS011;9804;52.350;6.684;2023-04-03T05:05:38;7.60;;;2.13;;
19339;SDS011;9804;52.350;6.684;2023-04-03T05:08:05;6.93;;;2.20;;
19339;SDS011;9804;52.350;6.684;2023-04-03T05:10:33;5.80;;;1.70;;
19339;SDS011;9804;52.350;6.684;2023-04-03T05:12:58;7.33;;;2.07;;
19339;SDS011;9804;52.350;6.684;2023-04-03T05:15:24;4.00;;;1.50;;
19339;SDS011;9804;52.350;6.684;2023-04-03T05:17:49;6.70;;;1.60;;
19339;SDS011;9804;52.350;6.684;2023-04-03T05:20:16;4.60;;;2.03;;
19339;SDS011;9804;52.350;6.684;2023-04-03T05:22:41;5.47;;;1.93;;
19339;SDS011;9804;52.350;6.684;2023-04-03T05:25:07;11.37;;;2.00;;
19339;SDS011;9804;52.350;6.684;2023-04-03T05:27:32;9.17;;;2.07;;
19339;SDS011;9804;52.350;6.684;2023-04-03T05:29:58;5.00;;;1.57;;
19339;SDS011;9804;52.350;6.684;2023-04-03T05:32:24;6.70;;;1.87;;
19339;SDS011;9804;52.350;6.684;2023-04-03T05:34:52;6.47;;;1.80;;
19339;SDS011;9804;52.350;6.684;2023-04-03T05:37:18;5.33;;;1.80;;
19339;SDS011;9804;52.350;6.684;2023-04-03T05:39:43;7.13;;;1.97;;
19339;SDS011;9804;52.350;6.684;2023-04-03T05:42:09;5.63;;;1.73;;
19339;SDS011;9804;52.350;6.684;2023-04-03T05:44:36;6.80;;;1.80;;
19339;SDS011;9804;52.350;6.684;2023-04-03T05:47:01;7.03;;;1.67;;
19339;SDS011;9804;52.350;6.684;2023-04-03T05:49:27;4.07;;;1.60;;
19339;SDS011;9804;52.350;6.684;2023-04-03T05:51:52;5.70;;;1.87;;
19339;SDS011;9804;52.350;6.684;2023-04-03T05:54:19;2.83;;;1.30;;
19339;SDS011;9804;52.350;6.684;2023-04-03T05:56:48;6.67;;;1.87;;
19339;SDS011;9804;52.350;6.684;2023-04-03T05:59:14;10.07;;;2.23;;
19339;SDS011;9804;52.350;6.684;2023-04-03T06:01:40;6.33;;;1.77;;
19339;SDS011;9804;52.350;6.684;2023-04-03T06:04:05;7.80;;;1.97;;
19339;SDS011;9804;52.350;6.684;2023-04-03T06:06:43;6.40;;;1.93;;
19339;SDS011;9804;52.350;6.684;2023-04-03T06:09:09;8.17;;;1.77;;
19339;SDS011;9804;52.350;6.684;2023-04-03T06:11:34;6.23;;;1.13;;
19339;SDS011;9804;52.350;6.684;2023-04-03T06:14:00;5.40;;;1.70;;
19339;SDS011;9804;52.350;6.684;2023-04-03T06:16:26;6.60;;;1.70;;
19339;SDS011;9804;52.350;6.684;2023-04-03T06:18:51;4.37;;;1.33;;
19339;SDS011;9804;52.350;6.684;2023-04-03T06:21:17;3.93;;;1.20;;
19339;SDS011;9804;52.350;6.684;2023-04-03T06:23:42;3.80;;;1.37;;
19339;SDS011;9804;52.350;6.684;2023-04-03T06:26:07;4.10;;;1.30;;
19339;SDS011;9804;52.350;6.684;2023-04-03T06:28:33;4.90;;;1.47;;
19339;SDS011;9804;52.350;6.684;2023-04-03T06:30:58;3.20;;;1.70;;
19339;SDS011;9804;52.350;6.684;2023-04-03T06:33:24;5.40;;;1.60;;
19339;SDS011;9804;52.350;6.684;2023-04-03T06:35:49;5.57;;;1.30;;
19339;SDS011;9804;52.350;6.684;2023-04-03T06:38:14;4.33;;;1.17;;
19339;SDS011;9804;52.350;6.684;2023-04-03T06:40:40;7.27;;;1.77;;
19339;SDS011;9804;52.350;6.684;2023-04-03T06:43:05;8.60;;;1.27;;
19339;SDS011;9804;52.350;6.684;2023-04-03T06:45:30;5.17;;;1.40;;
19339;SDS011;9804;52.350;6.684;2023-04-03T06:47:56;5.63;;;1.60;;
19339;SDS011;9804;52.350;6.684;2023-04-03T06:50:21;5.30;;;1.33;;
19339;SDS011;9804;52.350;6.684;2023-04-03T06:52:47;6.57;;;1.70;;
19339;SDS011;9804;52.350;6.684;2023-04-03T06:55:12;7.10;;;1.70;;
19339;SDS011;9804;52.350;6.684;2023-04-03T06:57:37;7.73;;;1.50;;
19339;SDS011;9804;52.350;6.684;2023-04-03T07:00:04;7.70;;;1.53;;
19339;SDS011;9804;52.350;6.684;2023-04-03T07:02:30;6.70;;;1.40;;
19339;SDS011;9804;52.350;6.684;2023-04-03T07:04:56;5.83;;;1.33;;
19339;SDS011;9804;52.350;6.684;2023-04-03T07:07:21;6.03;;;1.17;;
19339;SDS011;9804;52.350;6.684;2023-04-03T07:09:47;2.47;;;0.90;;
19339;SDS011;9804;52.350;6.684;2023-04-03T07:12:13;5.53;;;1.40;;
19339;SDS011;9804;52.350;6.684;2023-04-03T07:14:38;4.60;;;1.37;;
19339;SDS011;9804;52.350;6.684;2023-04-03T07:17:04;3.83;;;1.20;;
19339;SDS011;9804;52.350;6.684;2023-04-03T07:19:29;5.73;;;1.00;;
19339;SDS011;9804;52.350;6.684;2023-04-03T07:21:56;3.03;;;1.30;;
19339;SDS011;9804;52.350;6.684;2023-04-03T07:24:21;8.50;;;1.93;;
19339;SDS011;9804;52.350;6.684;2023-04-03T07:26:50;7.70;;;1.50;;
19339;SDS011;9804;52.350;6.684;2023-04-03T07:29:16;9.27;;;1.33;;
19339;SDS011;9804;52.350;6.684;2023-04-03T07:31:42;3.07;;;1.40;;
19339;SDS011;9804;52.350;6.684;2023-04-03T07:34:09;3.93;;;1.00;;
19339;SDS011;9804;52.350;6.684;2023-04-03T07:36:35;3.30;;;0.97;;
19339;SDS011;9804;52.350;6.684;2023-04-03T07:39:01;6.40;;;1.20;;
19339;SDS011;9804;52.350;6.684;2023-04-03T07:41:26;3.97;;;1.17;;
19339;SDS011;9804;52.350;6.684;2023-04-03T07:43:53;8.00;;;1.30;;
19339;SDS011;9804;52.350;6.684;2023-04-03T07:46:19;5.00;;;1.47;;
19339;SDS011;9804;52.350;6.684;2023-04-03T07:48:45;4.87;;;1.00;;
19339;SDS011;9804;52.350;6.684;2023-04-03T07:51:11;4.77;;;1.30;;
19339;SDS011;9804;52.350;6.684;2023-04-03T07:53:37;3.20;;;0.90;;
19339;SDS011;9804;52.350;6.684;2023-04-03T07:56:03;3.87;;;0.70;;
19339;SDS011;9804;52.350;6.684;2023-04-03T07:58:29;4.07;;;1.20;;
19339;SDS011;9804;52.350;6.684;2023-04-03T08:00:54;2.33;;;0.80;;
19339;SDS011;9804;52.350;6.684;2023-04-03T08:03:20;2.83;;;0.70;;
19339;SDS011;9804;52.350;6.684;2023-04-03T08:05:47;3.77;;;1.00;;
19339;SDS011;9804;52.350;6.684;2023-04-03T08:08:14;4.97;;;0.70;;
19339;SDS011;9804;52.350;6.684;2023-04-03T08:10:41;2.47;;;0.60;;
19339;SDS011;9804;52.350;6.684;2023-04-03T08:13:07;3.57;;;0.83;;
19339;SDS011;9804;52.350;6.684;2023-04-03T08:15:33;2.00;;;0.60;;
19339;SDS011;9804;52.350;6.684;2023-04-03T08:17:59;2.33;;;0.57;;
19339;SDS011;9804;52.350;6.684;2023-04-03T08:20:26;5.77;;;0.90;;
19339;SDS011;9804;52.350;6.684;2023-04-03T08:22:52;1.37;;;0.50;;
19339;SDS011;9804;52.350;6.684;2023-04-03T08:25:17;5.17;;;0.90;;
19339;SDS011;9804;52.350;6.684;2023-04-03T08:27:43;5.43;;;0.70;;
19339;SDS011;9804;52.350;6.684;2023-04-03T08:30:09;2.90;;;0.67;;
19339;SDS011;9804;52.350;6.684;2023-04-03T08:32:35;3.13;;;0.80;;
19339;SDS011;9804;52.350;6.684;2023-04-03T08:35:01;3.73;;;0.60;;
19339;SDS011;9804;52.350;6.684;2023-04-03T08:37:29;3.73;;;0.63;;
19339;SDS011;9804;52.350;6.684;2023-04-03T08:39:55;1.63;;;0.50;;
19339;SDS011;9804;52.350;6.684;2023-04-03T08:45:28;2.97;;;0.80;;
19339;SDS011;9804;52.350;6.684;2023-04-03T08:48:20;2.30;;;0.57;;
19339;SDS011;9804;52.350;6.684;2023-04-03T08:50:50;1.97;;;0.50;;
19339;SDS011;9804;52.350;6.684;2023-04-03T08:53:19;2.37;;;0.80;;
19339;SDS011;9804;52.350;6.684;2023-04-03T08:55:49;2.40;;;0.80;;
19339;SDS011;9804;52.350;6.684;2023-04-03T08:58:19;1.57;;;0.40;;
19339;SDS011;9804;52.350;6.684;2023-04-03T09:03:42;1.73;;;0.40;;
19339;SDS011;9804;52.350;6.684;2023-04-03T09:06:11;2.97;;;0.73;;
19339;SDS011;9804;52.350;6.684;2023-04-03T09:08:43;3.33;;;0.67;;
19339;SDS011;9804;52.350;6.684;2023-04-03T09:14:13;2.87;;;0.40;;
19339;SDS011;9804;52.350;6.684;2023-04-03T09:17:03;1.70;;;0.33;;
19339;SDS011;9804;52.350;6.684;2023-04-03T09:19:36;2.83;;;0.57;;
19339;SDS011;9804;52.350;6.684;2023-04-03T09:24:41;2.37;;;0.40;;
19339;SDS011;9804;52.350;6.684;2023-04-03T09:27:09;1.17;;;0.30;;
19339;SDS011;9804;52.350;6.684;2023-04-03T09:29:39;1.70;;;0.50;;
19339;SDS011;9804;52.350;6.684;2023-04-03T09:34:57;3.00;;;0.50;;
19339;SDS011;9804;52.350;6.684;2023-04-03T09:37:43;2.67;;;0.50;;
19339;SDS011;9804;52.350;6.684;2023-04-03T09:42:54;3.20;;;0.63;;
19339;SDS011;9804;52.350;6.684;2023-04-03T09:45:28;1.77;;;0.50;;
19339;SDS011;9804;52.350;6.684;2023-04-03T09:53:31;2.22;;;0.50;;
19339;SDS011;9804;52.350;6.684;2023-04-03T09:55:58;1.73;;;0.40;;
19339;SDS011;9804;52.350;6.684;2023-04-03T10:01:03;2.17;;;0.40;;
19339;SDS011;9804;52.350;6.684;2023-04-03T10:03:30;1.87;;;0.50;;
19339;SDS011;9804;52.350;6.684;2023-04-03T10:05:58;1.60;;;0.60;;
19339;SDS011;9804;52.350;6.684;2023-04-03T10:08:25;1.75;;;0.35;;
19339;SDS011;9804;52.350;6.684;2023-04-03T10:11:17;2.80;;;0.30;;
19339;SDS011;9804;52.350;6.684;2023-04-03T10:13:59;2.15;;;0.50;;
19339;SDS011;9804;52.350;6.684;2023-04-03T10:16:27;2.50;;;0.50;;
19339;SDS011;9804;52.350;6.684;2023-04-03T10:27:42;1.60;;;0.40;;
19339;SDS011;9804;52.350;6.684;2023-04-03T10:30:14;1.17;;;0.43;;
19339;SDS011;9804;52.350;6.684;2023-04-03T10:36:07;1.88;;;0.40;;
19339;SDS011;9804;52.350;6.684;2023-04-03T10:39:23;2.60;;;0.50;;
19339;SDS011;9804;52.350;6.684;2023-04-03T10:47:22;0.47;;;0.30;;
19339;SDS011;9804;52.350;6.684;2023-04-03T10:50:00;1.55;;;0.43;;
19339;SDS011;9804;52.350;6.684;2023-04-03T10:52:41;2.65;;;0.65;;
19339;SDS011;9804;52.350;6.684;2023-04-03T10:57:38;2.60;;;0.68;;
19339;SDS011;9804;52.350;6.684;2023-04-03T11:00:19;3.80;;;0.80;;
19339;SDS011;9804;52.350;6.684;2023-04-03T11:02:52;2.17;;;0.50;;
19339;SDS011;9804;52.350;6.684;2023-04-03T11:05:25;4.32;;;0.77;;
19339;SDS011;9804;52.350;6.684;2023-04-03T11:07:57;2.42;;;0.70;;
19339;SDS011;9804;52.350;6.684;2023-04-03T11:10:36;1.17;;;0.70;;
19339;SDS011;9804;52.350;6.684;2023-04-03T11:13:09;2.97;;;0.70;;
19339;SDS011;9804;52.350;6.684;2023-04-03T11:15:38;2.53;;;0.60;;
19339;SDS011;9804;52.350;6.684;2023-04-03T11:18:09;2.40;;;0.60;;
19339;SDS011;9804;52.350;6.684;2023-04-03T11:20:38;3.13;;;0.50;;
19339;SDS011;9804;52.350;6.684;2023-04-03T11:23:26;1.30;;;0.40;;
19339;SDS011;9804;52.350;6.684;2023-04-03T11:25:58;1.30;;;0.55;;
19339;SDS011;9804;52.350;6.684;2023-04-03T11:28:39;3.50;;;0.80;;
19339;SDS011;9804;52.350;6.684;2023-04-03T11:31:22;4.03;;;0.60;;
19339;SDS011;9804;52.350;6.684;2023-04-03T11:34:00;1.38;;;0.50;;
19339;SDS011;9804;52.350;6.684;2023-04-03T11:37:13;2.33;;;0.77;;
19339;SDS011;9804;52.350;6.684;2023-04-03T11:40:03;1.30;;;0.60;;
19339;SDS011;9804;52.350;6.684;2023-04-03T11:42:32;2.40;;;0.68;;
19339;SDS011;9804;52.350;6.684;2023-04-03T11:47:59;4.72;;;0.70;;
19339;SDS011;9804;52.350;6.684;2023-04-03T12:05:53;3.00;;;0.77;;
19339;SDS011;9804;52.350;6.684;2023-04-03T12:13:40;2.65;;;0.88;;
19339;SDS011;9804;52.350;6.684;2023-04-03T12:21:24;1.77;;;0.80;;
19339;SDS011;9804;52.350;6.684;2023-04-03T12:26:44;3.10;;;0.65;;
19339;SDS011;9804;52.350;6.684;2023-04-03T12:37:57;2.35;;;0.75;;
19339;SDS011;9804;52.350;6.684;2023-04-03T12:48:18;2.25;;;0.80;;
19339;SDS011;9804;52.350;6.684;2023-04-03T12:50:50;6.20;;;1.10;;
19339;SDS011;9804;52.350;6.684;2023-04-03T12:53:18;2.10;;;0.50;;
19339;SDS011;9804;52.350;6.684;2023-04-03T12:55:46;3.47;;;0.80;;
19339;SDS011;9804;52.350;6.684;2023-04-03T12:58:21;3.45;;;0.82;;
19339;SDS011;9804;52.350;6.684;2023-04-03T13:01:02;2.97;;;0.80;;
19339;SDS011;9804;52.350;6.684;2023-04-03T13:03:34;2.30;;;0.90;;
19339;SDS011;9804;52.350;6.684;2023-04-03T13:06:02;2.67;;;0.90;;
19339;SDS011;9804;52.350;6.684;2023-04-03T13:08:29;1.33;;;0.63;;
19339;SDS011;9804;52.350;6.684;2023-04-03T13:11:30;3.38;;;0.93;;
19339;SDS011;9804;52.350;6.684;2023-04-03T13:13:55;2.35;;;0.80;;
19339;SDS011;9804;52.350;6.684;2023-04-03T13:16:21;2.78;;;0.90;;
19339;SDS011;9804;52.350;6.684;2023-04-03T13:18:50;4.20;;;1.27;;
19339;SDS011;9804;52.350;6.684;2023-04-03T13:21:18;3.75;;;1.02;;
19339;SDS011;9804;52.350;6.684;2023-04-03T13:23:47;3.85;;;1.38;;
19339;SDS011;9804;52.350;6.684;2023-04-03T13:26:15;2.35;;;0.95;;
19339;SDS011;9804;52.350;6.684;2023-04-03T13:28:42;2.38;;;0.70;;
19339;SDS011;9804;52.350;6.684;2023-04-03T13:33:56;5.63;;;1.00;;
19339;SDS011;9804;52.350;6.684;2023-04-03T13:36:32;3.55;;;0.95;;
19339;SDS011;9804;52.350;6.684;2023-04-03T13:39:01;2.47;;;0.80;;
19339;SDS011;9804;52.350;6.684;2023-04-03T13:41:44;1.75;;;0.63;;
19339;SDS011;9804;52.350;6.684;2023-04-03T13:44:16;2.45;;;0.85;;
19339;SDS011;9804;52.350;6.684;2023-04-03T13:50:00;1.50;;;0.80;;
19339;SDS011;9804;52.350;6.684;2023-04-03T13:53:00;1.58;;;0.60;;
19339;SDS011;9804;52.350;6.684;2023-04-03T13:55:32;3.17;;;0.75;;
19339;SDS011;9804;52.350;6.684;2023-04-03T14:00:56;3.25;;;0.90;;
19339;SDS011;9804;52.350;6.684;2023-04-03T14:03:33;2.90;;;1.00;;
19339;SDS011;9804;52.350;6.684;2023-04-03T14:06:11;2.88;;;0.77;;
19339;SDS011;9804;52.350;6.684;2023-04-03T14:08:38;3.65;;;0.80;;
19339;SDS011;9804;52.350;6.684;2023-04-03T14:11:05;1.88;;;0.80;;
19339;SDS011;9804;52.350;6.684;2023-04-03T14:13:30;2.78;;;0.80;;
19339;SDS011;9804;52.350;6.684;2023-04-03T14:15:56;2.20;;;0.90;;
19339;SDS011;9804;52.350;6.684;2023-04-03T14:18:22;4.03;;;0.80;;
19339;SDS011;9804;52.350;6.684;2023-04-03T14:20:48;4.32;;;1.17;;
19339;SDS011;9804;52.350;6.684;2023-04-03T14:23:14;2.75;;;0.55;;
19339;SDS011;9804;52.350;6.684;2023-04-03T14:25:39;3.63;;;1.10;;
19339;SDS011;9804;52.350;6.684;2023-04-03T14:28:16;2.30;;;0.70;;
19339;SDS011;9804;52.350;6.684;2023-04-03T14:30:43;2.13;;;0.70;;
19339;SDS011;9804;52.350;6.684;2023-04-03T14:33:12;1.63;;;0.73;;
19339;SDS011;9804;52.350;6.684;2023-04-03T14:35:40;3.47;;;0.70;;
19339;SDS011;9804;52.350;6.684;2023-04-03T14:38:12;4.18;;;1.00;;
19339;SDS011;9804;52.350;6.684;2023-04-03T14:40:53;3.65;;;0.88;;
19339;SDS011;9804;52.350;6.684;2023-04-03T14:43:20;3.35;;;0.80;;
19339;SDS011;9804;52.350;6.684;2023-04-03T14:45:46;2.45;;;0.75;;
19339;SDS011;9804;52.350;6.684;2023-04-03T14:48:22;2.33;;;0.73;;
19339;SDS011;9804;52.350;6.684;2023-04-03T14:50:51;2.00;;;0.85;;
19339;SDS011;9804;52.350;6.684;2023-04-03T14:53:17;2.55;;;0.80;;
19339;SDS011;9804;52.350;6.684;2023-04-03T14:55:47;2.28;;;0.90;;
19339;SDS011;9804;52.350;6.684;2023-04-03T14:58:17;5.18;;;1.25;;
19339;SDS011;9804;52.350;6.684;2023-04-03T15:00:44;1.70;;;0.77;;
19339;SDS011;9804;52.350;6.684;2023-04-03T15:03:12;4.47;;;1.02;;
19339;SDS011;9804;52.350;6.684;2023-04-03T15:05:40;1.98;;;0.90;;
19339;SDS011;9804;52.350;6.684;2023-04-03T15:08:08;2.63;;;0.77;;
19339;SDS011;9804;52.350;6.684;2023-04-03T15:10:48;3.80;;;0.90;;
19339;SDS011;9804;52.350;6.684;2023-04-03T15:13:14;1.90;;;0.68;;
19339;SDS011;9804;52.350;6.684;2023-04-03T15:15:40;3.97;;;0.60;;
19339;SDS011;9804;52.350;6.684;2023-04-03T15:18:06;3.75;;;0.80;;
19339;SDS011;9804;52.350;6.684;2023-04-03T15:20:35;2.95;;;0.85;;
19339;SDS011;9804;52.350;6.684;2023-04-03T15:23:00;1.98;;;0.90;;
19339;SDS011;9804;52.350;6.684;2023-04-03T15:25:26;2.60;;;1.00;;
19339;SDS011;9804;52.350;6.684;2023-04-03T15:27:53;3.63;;;0.82;;
19339;SDS011;9804;52.350;6.684;2023-04-03T15:30:19;5.55;;;0.90;;
19339;SDS011;9804;52.350;6.684;2023-04-03T15:32:45;2.17;;;0.88;;
19339;SDS011;9804;52.350;6.684;2023-04-03T15:35:11;2.92;;;0.77;;
19339;SDS011;9804;52.350;6.684;2023-04-03T15:37:37;4.55;;;0.82;;
19339;SDS011;9804;52.350;6.684;2023-04-03T15:40:03;2.58;;;0.70;;
19339;SDS011;9804;52.350;6.684;2023-04-03T15:42:29;4.00;;;0.88;;
19339;SDS011;9804;52.350;6.684;2023-04-03T15:44:55;3.38;;;1.10;;
19339;SDS011;9804;52.350;6.684;2023-04-03T15:47:20;2.38;;;1.05;;
19339;SDS011;9804;52.350;6.684;2023-04-03T15:49:46;3.50;;;0.90;;
19339;SDS011;9804;52.350;6.684;2023-04-03T15:52:11;2.33;;;0.93;;
19339;SDS011;9804;52.350;6.684;2023-04-03T15:54:37;2.60;;;1.42;;
19339;SDS011;9804;52.350;6.684;2023-04-03T15:57:02;2.80;;;0.70;;
19339;SDS011;9804;52.350;6.684;2023-04-03T15:59:27;4.90;;;0.93;;
19339;SDS011;9804;52.350;6.684;2023-04-03T16:01:55;3.70;;;0.75;;
19339;SDS011;9804;52.350;6.684;2023-04-03T16:04:21;4.22;;;0.90;;
19339;SDS011;9804;52.350;6.684;2023-04-03T16:06:46;3.05;;;0.95;;
19339;SDS011;9804;52.350;6.684;2023-04-03T16:09:13;2.33;;;0.90;;
19339;SDS011;9804;52.350;6.684;2023-04-03T16:11:39;2.50;;;0.80;;
19339;SDS011;9804;52.350;6.684;2023-04-03T16:14:05;2.05;;;0.73;;
19339;SDS011;9804;52.350;6.684;2023-04-03T16:16:33;3.05;;;0.82;;
19339;SDS011;9804;52.350;6.684;2023-04-03T16:19:00;2.97;;;0.93;;
19339;SDS011;9804;52.350;6.684;2023-04-03T16:21:26;2.33;;;0.63;;
19339;SDS011;9804;52.350;6.684;2023-04-03T16:23:52;2.38;;;0.95;;
19339;SDS011;9804;52.350;6.684;2023-04-03T16:26:17;1.77;;;0.80;;
19339;SDS011;9804;52.350;6.684;2023-04-03T16:28:43;4.30;;;0.90;;
19339;SDS011;9804;52.350;6.684;2023-04-03T16:31:08;2.78;;;0.98;;
19339;SDS011;9804;52.350;6.684;2023-04-03T16:33:34;1.70;;;0.88;;
19339;SDS011;9804;52.350;6.684;2023-04-03T16:36:00;2.03;;;0.75;;
19339;SDS011;9804;52.350;6.684;2023-04-03T16:38:25;3.35;;;0.90;;
19339;SDS011;9804;52.350;6.684;2023-04-03T16:40:51;2.53;;;0.65;;
19339;SDS011;9804;52.350;6.684;2023-04-03T16:43:21;3.47;;;0.90;;
19339;SDS011;9804;52.350;6.684;2023-04-03T16:45:46;2.45;;;0.95;;
19339;SDS011;9804;52.350;6.684;2023-04-03T16:48:12;2.28;;;0.90;;
19339;SDS011;9804;52.350;6.684;2023-04-03T16:50:38;5.85;;;0.80;;
19339;SDS011;9804;52.350;6.684;2023-04-03T16:53:04;1.75;;;0.70;;